createdAt,value
2018-11-20T00:02:55.988Z,5.80
2018-11-20T00:06:03.241Z,6.00
2018-11-20T00:12:28.464Z,6.00
2018-11-20T00:15:35.685Z,6.20
2018-11-20T00:18:42.945Z,6.10
2018-11-20T00:21:44.270Z,5.90
2018-11-20T00:24:51.544Z,5.80
2018-11-20T00:27:58.770Z,6.10
2018-11-20T00:31:02.948Z,5.70
2018-11-20T00:34:10.152Z,5.90
2018-11-20T00:37:17.696Z,6.00
2018-11-20T00:40:12.381Z,6.00
2018-11-20T00:43:19.623Z,5.90
2018-11-20T00:46:26.857Z,5.90
2018-11-20T00:49:34.105Z,5.80
2018-11-20T00:52:42.074Z,5.70
2018-11-20T00:56:08.296Z,5.70
2018-11-20T00:59:15.529Z,6.00
2018-11-20T01:02:22.802Z,6.10
2018-11-20T01:05:30.039Z,6.10
2018-11-20T01:08:37.259Z,6.10
2018-11-20T01:11:44.485Z,5.70
2018-11-20T01:14:51.696Z,5.90
2018-11-20T01:17:59.645Z,5.60
2018-11-20T01:21:06.875Z,5.50
2018-11-20T01:27:22.775Z,6.10
2018-11-20T01:30:30.031Z,6.00
2018-11-20T01:33:37.243Z,5.90
2018-11-20T01:36:44.471Z,5.80
2018-11-20T01:39:51.946Z,5.70
2018-11-20T01:42:59.165Z,5.50
2018-11-20T01:46:06.696Z,5.50
2018-11-20T01:49:13.918Z,5.40
2018-11-20T01:52:21.146Z,5.50
2018-11-20T01:55:28.358Z,5.60
2018-11-20T01:58:25.830Z,5.80
2018-11-20T02:01:33.061Z,5.70
2018-11-20T02:04:34.039Z,5.70
2018-11-20T02:07:41.272Z,5.90
2018-11-20T02:10:48.556Z,5.90
2018-11-20T02:14:05.362Z,5.40
2018-11-20T02:17:16.843Z,4.70
2018-11-20T02:20:24.515Z,4.90
2018-11-20T02:23:31.741Z,5.00
2018-11-20T02:26:38.966Z,4.90
2018-11-20T02:29:46.210Z,4.30
2018-11-20T02:32:53.418Z,4.40
2018-11-20T02:36:00.653Z,4.40
2018-11-20T02:42:20.927Z,4.40
2018-11-20T02:45:23.276Z,4.50
2018-11-20T02:48:30.521Z,4.60
2018-11-20T02:51:37.767Z,4.70
2018-11-20T02:54:44.989Z,4.80
2018-11-20T02:57:52.228Z,4.80
2018-11-20T03:00:59.465Z,4.90
2018-11-20T03:03:57.385Z,5.00
2018-11-20T03:07:04.917Z,5.00
2018-11-20T03:10:31.155Z,4.80
2018-11-20T03:13:38.384Z,4.80
2018-11-20T03:16:45.675Z,4.70
2018-11-20T03:19:52.909Z,5.00
2018-11-20T03:22:49.036Z,4.60
2018-11-20T03:25:59.958Z,4.80
2018-11-20T03:29:26.176Z,5.30
2018-11-20T03:32:33.385Z,5.50
2018-11-20T03:35:40.618Z,5.40
2018-11-20T03:38:47.834Z,5.70
2018-11-20T03:41:46.560Z,5.40
2018-11-20T03:44:53.812Z,5.20
2018-11-20T03:48:01.118Z,5.30
2018-11-20T03:51:08.318Z,5.30
2018-11-20T03:54:15.566Z,5.30
2018-11-20T03:57:22.771Z,5.10
2018-11-20T04:00:30.245Z,5.10
2018-11-20T04:03:37.460Z,5.00
2018-11-20T04:06:37.124Z,5.20
2018-11-20T04:09:32.210Z,5.10
2018-11-20T04:12:39.466Z,5.30
2018-11-20T04:15:37.064Z,5.30
2018-11-20T04:18:44.312Z,5.30
2018-11-20T04:21:51.522Z,5.20
2018-11-20T04:28:06.939Z,5.10
2018-11-20T04:31:33.161Z,5.10
2018-11-20T04:34:40.723Z,5.10
2018-11-20T04:37:36.404Z,5.30
2018-11-20T04:40:43.631Z,5.10
2018-11-20T04:43:48.664Z,5.30
2018-11-20T04:46:55.879Z,5.50
2018-11-20T04:50:03.253Z,5.50
2018-11-20T04:53:10.367Z,5.50
2018-11-20T04:56:17.631Z,5.40
2018-11-20T04:59:25.124Z,5.30
2018-11-20T05:02:32.398Z,5.20
2018-11-20T05:05:40.067Z,5.20
2018-11-20T05:08:47.303Z,5.10
2018-11-20T05:11:54.895Z,5.20
2018-11-20T05:15:02.143Z,5.10
2018-11-20T05:18:09.376Z,5.10
2018-11-20T05:21:08.946Z,5.10
2018-11-20T05:24:16.168Z,5.20
2018-11-20T05:27:11.420Z,5.40
2018-11-20T05:30:18.238Z,5.40
2018-11-20T05:33:25.479Z,5.60
2018-11-20T05:36:32.791Z,5.60
2018-11-20T05:39:40.028Z,5.40
2018-11-20T05:42:47.251Z,5.50
2018-11-20T05:45:54.463Z,5.60
2018-11-20T05:49:01.711Z,5.40
2018-11-20T05:52:09.501Z,5.30
2018-11-20T05:55:06.123Z,5.40
2018-11-20T05:58:13.464Z,5.60
2018-11-20T06:01:20.625Z,5.60
2018-11-20T06:04:27.838Z,6.00
2018-11-20T06:07:35.097Z,5.80
2018-11-20T06:10:42.319Z,5.80
2018-11-20T06:13:49.573Z,5.50
2018-11-20T06:16:56.784Z,5.70
2018-11-20T06:20:04.278Z,5.70
2018-11-20T06:23:06.837Z,6.00
2018-11-20T06:26:06.948Z,6.20
2018-11-20T06:29:06.692Z,6.10
2018-11-20T06:32:07.167Z,6.20
2018-11-20T06:35:03.458Z,6.20
2018-11-20T06:38:03.556Z,6.60
2018-11-20T06:41:00.726Z,6.80
2018-11-20T06:43:59.794Z,6.70
2018-11-20T06:50:03.148Z,6.40
2018-11-20T06:52:59.798Z,6.30
2018-11-20T06:55:59.587Z,6.20
2018-11-20T06:58:59.287Z,5.80
2018-11-20T07:01:59.441Z,5.90
2018-11-20T07:05:01.881Z,6.00
2018-11-20T07:08:02.072Z,6.20
2018-11-20T07:10:56.575Z,6.30
2018-11-20T07:13:56.839Z,6.10
2018-11-20T07:16:56.688Z,6.20
2018-11-20T07:20:02.425Z,5.80
2018-11-20T07:23:02.237Z,6.00
2018-11-20T07:28:56.846Z,6.20
2018-11-20T07:31:59.512Z,6.20
2018-11-20T07:34:47.159Z,6.30
2018-11-20T07:40:50.683Z,6.10
2018-11-20T07:46:54.608Z,6.10
2018-11-20T07:52:58.088Z,6.40
2018-11-20T07:55:58.326Z,6.00
2018-11-20T08:05:11.839Z,6.40
2018-11-20T08:11:15.499Z,6.10
2018-11-20T08:14:05.309Z,6.20
2018-11-20T08:17:08.590Z,6.20
2018-11-20T08:19:57.063Z,6.30
2018-11-20T08:22:57.605Z,6.10
2018-11-20T08:25:57.681Z,6.50
2018-11-20T08:28:47.306Z,6.20
2018-11-20T08:31:50.085Z,6.50
2018-11-20T08:34:52.792Z,6.10
2018-11-20T08:40:56.419Z,6.10
2018-11-20T08:43:51.577Z,5.70
2018-11-20T08:46:52.337Z,5.80
2018-11-20T08:49:57.919Z,5.60
2018-11-20T08:52:47.444Z,5.80
2018-11-20T08:55:47.632Z,5.90
2018-11-20T08:58:47.710Z,6.00
2018-11-20T09:04:50.821Z,6.10
2018-11-20T09:10:57.177Z,6.30
2018-11-20T09:13:56.645Z,6.30
2018-11-20T09:19:59.728Z,6.10
2018-11-20T09:22:59.732Z,6.20
2018-11-20T09:25:59.835Z,6.20
2018-11-20T09:32:07.370Z,6.20
2018-11-20T09:38:00.781Z,6.10
2018-11-20T09:44:04.555Z,6.40
2018-11-20T09:47:04.584Z,6.10
2018-11-20T09:50:05.004Z,6.10
2018-11-20T09:53:05.208Z,5.70
2018-11-20T09:56:10.940Z,5.80
2018-11-20T09:59:11.153Z,6.10
2018-11-20T10:02:12.091Z,6.20
2018-11-20T10:05:12.427Z,6.00
2018-11-20T10:08:12.502Z,5.70
2018-11-20T10:14:23.533Z,5.80
2018-11-20T10:17:23.251Z,6.00
2018-11-20T10:20:29.454Z,6.10
2018-11-20T10:23:29.758Z,6.00
2018-11-20T10:26:30.046Z,6.40
2018-11-20T10:32:37.786Z,6.50
2018-11-20T10:35:38.394Z,6.20
2018-11-20T10:38:38.346Z,6.30
2018-11-20T10:41:37.522Z,6.10
2018-11-20T10:47:43.380Z,6.00
2018-11-20T10:50:43.348Z,6.00
2018-11-20T10:53:45.925Z,6.20
2018-11-20T10:56:46.587Z,6.30
2018-11-20T10:59:46.768Z,6.40
2018-11-20T11:02:46.519Z,5.70
2018-11-20T11:05:32.920Z,5.90
2018-11-20T11:08:32.875Z,5.90
2018-11-20T11:14:36.299Z,6.00
2018-11-20T11:17:36.330Z,6.10
2018-11-20T11:20:36.677Z,6.10
2018-11-20T11:23:36.535Z,6.40
2018-11-20T11:26:29.593Z,6.40
2018-11-20T11:29:29.518Z,5.90
2018-11-20T11:32:29.451Z,6.10
2018-11-20T11:35:29.425Z,6.20
2018-11-20T11:38:29.556Z,6.10
2018-11-20T11:41:29.323Z,5.90
2018-11-20T11:44:32.945Z,5.70
2018-11-20T11:47:32.419Z,5.50
2018-11-20T11:50:33.263Z,5.60
2018-11-20T11:53:28.558Z,6.10
2018-11-20T11:56:29.410Z,6.20
2018-11-20T11:59:29.424Z,6.30
2018-11-20T12:05:29.335Z,6.00
2018-11-20T12:08:17.699Z,5.90
2018-11-20T12:11:18.005Z,6.10
2018-11-20T12:14:18.602Z,6.00
2018-11-20T12:17:24.518Z,5.80
2018-11-20T12:20:14.231Z,6.00
2018-11-20T12:23:14.416Z,7.70
2018-11-20T12:26:15.105Z,7.90
2018-11-20T12:29:17.100Z,6.90
2018-11-20T12:32:15.700Z,6.10
2018-11-20T12:38:19.687Z,6.00
2018-11-20T12:44:22.871Z,6.30
2018-11-20T12:50:39.641Z,6.20
2018-11-20T12:56:43.477Z,6.20
2018-11-20T12:59:43.333Z,6.20
2018-11-20T13:02:44.264Z,6.30
2018-11-20T13:08:48.129Z,6.10
2018-11-20T13:14:50.600Z,5.80
2018-11-20T13:17:52.978Z,5.90
2018-11-20T13:20:54.306Z,6.10
2018-11-20T13:23:52.999Z,6.20
2018-11-20T13:26:55.832Z,6.10
2018-11-20T13:29:55.976Z,5.90
2018-11-20T13:32:44.219Z,6.00
2018-11-20T13:35:51.596Z,6.00
2018-11-20T13:39:00.577Z,5.90
2018-11-20T13:42:08.070Z,5.90
2018-11-20T13:45:18.626Z,5.90
2018-11-20T13:48:23.269Z,5.90
2018-11-20T13:51:31.859Z,5.60
2018-11-20T13:54:37.736Z,6.00
2018-11-20T13:57:38.518Z,6.10
2018-11-20T14:00:45.765Z,6.00
2018-11-20T14:03:53.016Z,6.00
2018-11-20T14:07:00.418Z,6.30
2018-11-20T14:10:08.503Z,6.20
2018-11-20T14:13:15.758Z,6.00
2018-11-20T14:16:23.029Z,6.00
2018-11-20T14:19:30.241Z,5.90
2018-11-20T14:22:37.483Z,6.10
2018-11-20T14:25:46.272Z,5.90
2018-11-20T14:28:53.515Z,5.70
2018-11-20T14:32:00.732Z,6.40
2018-11-20T14:34:58.501Z,6.40
2018-11-20T14:38:05.705Z,6.20
2018-11-20T14:44:16.477Z,5.90
2018-11-20T14:47:23.727Z,5.80
2018-11-20T14:50:30.996Z,6.00
2018-11-20T14:53:38.239Z,6.10
2018-11-20T14:56:45.459Z,6.30
2018-11-20T14:59:52.691Z,6.20
2018-11-20T15:02:58.572Z,6.10
2018-11-20T15:06:05.788Z,6.00
2018-11-20T15:09:13.033Z,6.00
2018-11-20T15:12:20.252Z,5.90
2018-11-20T15:15:29.107Z,6.00
2018-11-20T15:18:36.650Z,6.00
2018-11-20T15:21:43.919Z,6.10
2018-11-20T15:24:51.142Z,6.30
2018-11-20T15:27:29.681Z,6.00
2018-11-20T15:30:29.596Z,4.60
2018-11-20T15:33:36.873Z,5.90
2018-11-20T15:36:44.097Z,6.00
2018-11-20T15:39:51.361Z,5.80
2018-11-20T15:42:50.706Z,5.80
2018-11-20T15:45:57.933Z,6.00
2018-11-20T15:49:05.159Z,6.30
2018-11-20T15:52:12.408Z,6.10
2018-11-20T15:55:19.632Z,6.00
2018-11-20T15:58:26.921Z,6.00
2018-11-20T16:01:34.140Z,6.00
2018-11-20T16:04:33.114Z,6.20
2018-11-20T16:07:40.753Z,5.80
2018-11-20T16:10:48.026Z,5.70
2018-11-20T16:13:55.274Z,5.70
2018-11-20T16:20:04.390Z,6.00
2018-11-20T16:23:03.763Z,6.00
2018-11-20T16:26:05.392Z,5.90
2018-11-20T16:29:12.630Z,6.10
2018-11-20T16:32:14.071Z,6.40
2018-11-20T16:35:21.309Z,6.30
2018-11-20T16:38:20.759Z,6.30
2018-11-20T16:41:28.004Z,6.20
2018-11-20T16:44:35.265Z,6.30
2018-11-20T16:47:42.494Z,6.60
2018-11-20T16:50:49.732Z,6.60
2018-11-20T16:53:56.962Z,6.50
2018-11-20T16:57:03.299Z,6.80
2018-11-20T17:00:03.292Z,6.00
2018-11-20T17:03:00.750Z,6.10
2018-11-20T17:06:00.977Z,6.50
2018-11-20T17:09:00.559Z,6.40
2018-11-20T17:12:00.742Z,7.20
2018-11-20T17:15:03.347Z,6.80
2018-11-20T17:20:46.965Z,7.00
2018-11-20T17:23:36.707Z,6.60
2018-11-20T17:26:37.031Z,6.60
2018-11-20T17:32:21.611Z,6.50
2018-11-20T17:35:24.406Z,6.70
2018-11-20T17:38:24.643Z,7.20
2018-11-20T17:41:24.738Z,6.90
2018-11-20T17:44:24.320Z,6.20
2018-11-20T17:47:24.623Z,5.90
2018-11-20T17:50:24.675Z,6.20
2018-11-20T17:53:24.665Z,5.90
2018-11-20T17:56:24.585Z,5.90
2018-11-20T18:02:15.803Z,6.40
2018-11-20T18:05:23.046Z,6.90
2018-11-20T18:08:30.309Z,6.90
2018-11-20T18:11:37.534Z,6.90
2018-11-20T18:14:44.772Z,6.30
2018-11-20T18:17:48.237Z,6.30
2018-11-20T18:20:55.483Z,6.60
2018-11-20T18:24:02.715Z,7.10
2018-11-20T18:27:01.406Z,7.20
2018-11-20T18:30:08.650Z,6.20
2018-11-20T18:33:15.870Z,4.20
2018-11-20T18:36:23.137Z,6.90
2018-11-20T18:39:30.336Z,6.20
2018-11-20T18:42:37.561Z,6.30
2018-11-20T18:45:45.089Z,6.30
2018-11-20T18:48:52.332Z,6.40
2018-11-20T18:51:48.131Z,6.30
2018-11-20T18:54:55.373Z,6.20
2018-11-20T18:58:02.638Z,6.10
2018-11-20T19:01:09.864Z,6.10
2018-11-20T19:04:17.082Z,5.90
2018-11-20T19:07:24.495Z,5.40
2018-11-20T19:10:31.742Z,5.70
2018-11-20T19:13:38.958Z,5.80
2018-11-20T19:16:46.190Z,5.70
2018-11-20T19:19:53.402Z,5.70
2018-11-20T19:23:00.714Z,5.70
2018-11-20T19:26:07.939Z,5.50
2018-11-20T19:29:15.177Z,4.90
2018-11-20T19:32:22.472Z,5.00
2018-11-20T19:35:29.713Z,5.30
2018-11-20T19:38:36.948Z,5.30
2018-11-20T19:41:40.881Z,5.60
2018-11-20T19:44:48.148Z,5.70
2018-11-20T19:47:55.393Z,5.80
2018-11-20T19:51:02.818Z,5.70
2018-11-20T19:54:10.420Z,5.60
2018-11-20T19:57:17.663Z,5.80
2018-11-20T20:00:26.241Z,6.00
2018-11-20T20:03:33.462Z,6.20
2018-11-20T20:06:40.761Z,5.70
2018-11-20T20:09:47.942Z,6.00
2018-11-20T20:12:55.167Z,5.60
2018-11-20T20:15:58.221Z,5.70
2018-11-20T20:19:05.464Z,5.60
2018-11-20T20:22:05.844Z,5.90
2018-11-20T20:25:13.093Z,5.30
2018-11-20T20:28:18.722Z,5.20
2018-11-20T20:31:26.728Z,5.30
2018-11-20T20:34:34.744Z,5.10
2018-11-20T20:37:42.003Z,4.70
2018-11-20T20:40:49.255Z,4.60
2018-11-20T20:43:53.333Z,4.80
2018-11-20T20:47:00.550Z,4.80
2018-11-20T20:50:07.798Z,5.30
2018-11-20T20:53:15.041Z,4.80
2018-11-20T20:56:26.251Z,4.80
2018-11-20T20:59:33.560Z,5.00
2018-11-20T21:02:36.566Z,5.20
2018-11-20T21:05:27.090Z,5.50
2018-11-20T21:08:13.944Z,5.20
2018-11-20T21:11:06.783Z,5.00
2018-11-20T21:13:53.422Z,4.90
2018-11-20T21:16:44.284Z,4.80
2018-11-20T21:19:35.340Z,5.10
2018-11-20T21:22:21.984Z,4.90
2018-11-20T21:25:13.186Z,5.20
2018-11-20T21:28:16.281Z,5.20
2018-11-20T21:31:10.232Z,5.20
2018-11-20T21:34:09.649Z,5.20
2018-11-20T21:36:56.391Z,5.40
2018-11-20T21:39:39.113Z,5.00
2018-11-20T21:42:20.555Z,5.40
2018-11-20T21:45:08.823Z,5.30
2018-11-20T21:47:55.384Z,5.30
2018-11-20T21:50:41.886Z,5.10
2018-11-20T21:53:28.425Z,5.10
2018-11-20T21:56:34.947Z,5.10
2018-11-20T21:59:40.290Z,5.10
2018-11-20T22:02:37.369Z,5.00
2018-11-20T22:05:24.359Z,5.20
2018-11-20T22:08:11.165Z,4.60
2018-11-20T22:11:09.641Z,4.90
2018-11-20T22:13:56.296Z,4.90
2018-11-20T22:17:02.483Z,4.80
2018-11-20T22:19:49.229Z,4.70
2018-11-20T22:22:35.715Z,5.70
2018-11-20T22:25:15.549Z,5.70
2018-11-20T22:27:54.847Z,5.50
2018-11-20T22:30:39.017Z,5.80
2018-11-20T22:33:25.843Z,5.70
2018-11-20T22:36:22.777Z,5.40
2018-11-20T22:39:00.834Z,5.40
2018-11-20T22:41:51.938Z,5.30
2018-11-20T22:44:38.544Z,5.10
2018-11-20T22:47:32.474Z,5.40
2018-11-20T22:50:09.530Z,5.50
2018-11-20T22:53:06.878Z,5.50
2018-11-20T22:55:53.439Z,5.40
2018-11-20T22:58:50.439Z,5.20
2018-11-20T23:01:32.164Z,5.40
2018-11-20T23:04:19.017Z,5.50
2018-11-20T23:07:03.099Z,5.40
2018-11-20T23:09:32.515Z,5.20
2018-11-20T23:12:01.957Z,5.30
2018-11-20T23:14:31.388Z,4.80
2018-11-20T23:17:00.797Z,4.80
2018-11-20T23:19:30.212Z,4.80
2018-11-20T23:21:59.627Z,5.10
2018-11-20T23:24:29.044Z,5.20
2018-11-20T23:26:58.461Z,5.20
2018-11-20T23:29:27.882Z,5.10
2018-11-20T23:31:57.293Z,5.10
2018-11-20T23:34:26.699Z,5.10
2018-11-20T23:36:56.119Z,5.40
2018-11-20T23:39:25.577Z,5.40
2018-11-20T23:41:54.997Z,5.30
2018-11-20T23:44:24.697Z,5.50
2018-11-20T23:46:54.136Z,5.80
2018-11-20T23:49:23.534Z,5.30
2018-11-20T23:51:52.956Z,5.30
2018-11-20T23:54:22.386Z,5.10
2018-11-20T23:59:20.849Z,5.00
